sensor_id;sensor_type;location;lat;lon;timestamp;P1;durP1;ratioP1;P2;durP2;ratioP2
74269;SDS011;62754;48.252;11.654;2023-04-24T00:01:55;2.65;;;0.80;;
74269;SDS011;62754;48.252;11.654;2023-04-24T00:04:23;2.10;;;0.90;;
74269;SDS011;62754;48.252;11.654;2023-04-24T00:06:48;3.28;;;0.90;;
74269;SDS011;62754;48.252;11.654;2023-04-24T00:09:14;1.80;;;0.90;;
74269;SDS011;62754;48.252;11.654;2023-04-24T00:11:40;2.30;;;0.80;;
74269;SDS011;62754;48.252;11.654;2023-04-24T00:14:06;2.58;;;0.85;;
74269;SDS011;62754;48.252;11.654;2023-04-24T00:16:32;3.45;;;1.02;;
74269;SDS011;62754;48.252;11.654;2023-04-24T00:19:01;1.40;;;0.90;;
74269;SDS011;62754;48.252;11.654;2023-04-24T00:21:29;1.98;;;0.93;;
74269;SDS011;62754;48.252;11.654;2023-04-24T00:23:56;2.05;;;0.80;;
74269;SDS011;62754;48.252;11.654;2023-04-24T00:26:27;1.88;;;0.70;;
74269;SDS011;62754;48.252;11.654;2023-04-24T00:28:52;2.00;;;0.95;;
74269;SDS011;62754;48.252;11.654;2023-04-24T00:31:18;2.75;;;0.90;;
74269;SDS011;62754;48.252;11.654;2023-04-24T00:33:46;2.00;;;0.80;;
74269;SDS011;62754;48.252;11.654;2023-04-24T00:36:12;2.15;;;0.93;;
74269;SDS011;62754;48.252;11.654;2023-04-24T00:38:40;1.42;;;0.60;;
74269;SDS011;62754;48.252;11.654;2023-04-24T00:41:06;1.80;;;0.70;;
74269;SDS011;62754;48.252;11.654;2023-04-24T00:43:34;3.35;;;0.80;;
74269;SDS011;62754;48.252;11.654;2023-04-24T00:46:02;1.63;;;0.68;;
74269;SDS011;62754;48.252;11.654;2023-04-24T00:48:28;1.92;;;0.90;;
74269;SDS011;62754;48.252;11.654;2023-04-24T00:50:57;1.33;;;0.60;;
74269;SDS011;62754;48.252;11.654;2023-04-24T00:53:22;2.80;;;0.70;;
74269;SDS011;62754;48.252;11.654;2023-04-24T00:55:48;1.48;;;0.75;;
74269;SDS011;62754;48.252;11.654;2023-04-24T00:58:16;5.00;;;0.80;;
74269;SDS011;62754;48.252;11.654;2023-04-24T01:00:44;1.35;;;0.60;;
74269;SDS011;62754;48.252;11.654;2023-04-24T01:03:10;1.95;;;0.50;;
74269;SDS011;62754;48.252;11.654;2023-04-24T01:05:39;3.22;;;0.73;;
74269;SDS011;62754;48.252;11.654;2023-04-24T01:08:09;1.67;;;0.60;;
74269;SDS011;62754;48.252;11.654;2023-04-24T01:10:40;2.15;;;0.60;;
74269;SDS011;62754;48.252;11.654;2023-04-24T01:13:09;1.08;;;0.60;;
74269;SDS011;62754;48.252;11.654;2023-04-24T01:15:35;2.72;;;0.38;;
74269;SDS011;62754;48.252;11.654;2023-04-24T01:18:04;1.50;;;0.65;;
74269;SDS011;62754;48.252;11.654;2023-04-24T01:20:30;1.55;;;0.45;;
74269;SDS011;62754;48.252;11.654;2023-04-24T01:22:59;1.75;;;0.73;;
74269;SDS011;62754;48.252;11.654;2023-04-24T01:25:27;0.88;;;0.40;;
74269;SDS011;62754;48.252;11.654;2023-04-24T01:27:53;1.42;;;0.50;;
74269;SDS011;62754;48.252;11.654;2023-04-24T01:30:21;1.23;;;0.40;;
74269;SDS011;62754;48.252;11.654;2023-04-24T01:32:47;1.85;;;0.50;;
74269;SDS011;62754;48.252;11.654;2023-04-24T01:35:16;2.75;;;0.40;;
74269;SDS011;62754;48.252;11.654;2023-04-24T01:37:42;0.80;;;0.40;;
74269;SDS011;62754;48.252;11.654;2023-04-24T01:40:07;3.88;;;0.50;;
74269;SDS011;62754;48.252;11.654;2023-04-24T01:42:38;4.07;;;0.50;;
74269;SDS011;62754;48.252;11.654;2023-04-24T01:45:10;0.70;;;0.30;;
74269;SDS011;62754;48.252;11.654;2023-04-24T01:47:36;1.25;;;0.40;;
74269;SDS011;62754;48.252;11.654;2023-04-24T01:50:05;1.95;;;0.40;;
74269;SDS011;62754;48.252;11.654;2023-04-24T01:52:34;1.60;;;0.25;;
74269;SDS011;62754;48.252;11.654;2023-04-24T01:55:02;0.95;;;0.30;;
74269;SDS011;62754;48.252;11.654;2023-04-24T01:57:28;3.22;;;0.50;;
74269;SDS011;62754;48.252;11.654;2023-04-24T01:59:54;0.95;;;0.32;;
74269;SDS011;62754;48.252;11.654;2023-04-24T02:02:22;0.65;;;0.30;;
74269;SDS011;62754;48.252;11.654;2023-04-24T02:04:48;0.68;;;0.30;;
74269;SDS011;62754;48.252;11.654;2023-04-24T02:07:19;1.23;;;0.30;;
74269;SDS011;62754;48.252;11.654;2023-04-24T02:09:47;1.67;;;0.52;;
74269;SDS011;62754;48.252;11.654;2023-04-24T02:12:14;1.00;;;0.50;;
74269;SDS011;62754;48.252;11.654;2023-04-24T02:14:42;0.75;;;0.35;;
74269;SDS011;62754;48.252;11.654;2023-04-24T02:17:11;2.10;;;0.47;;
74269;SDS011;62754;48.252;11.654;2023-04-24T02:19:36;2.08;;;0.60;;
74269;SDS011;62754;48.252;11.654;2023-04-24T02:22:06;1.63;;;0.50;;
74269;SDS011;62754;48.252;11.654;2023-04-24T02:24:35;0.95;;;0.40;;
74269;SDS011;62754;48.252;11.654;2023-04-24T02:27:00;0.95;;;0.38;;
74269;SDS011;62754;48.252;11.654;2023-04-24T02:29:26;1.17;;;0.30;;
74269;SDS011;62754;48.252;11.654;2023-04-24T02:31:52;0.77;;;0.30;;
74269;SDS011;62754;48.252;11.654;2023-04-24T02:34:18;0.80;;;0.30;;
74269;SDS011;62754;48.252;11.654;2023-04-24T02:36:48;0.47;;;0.30;;
74269;SDS011;62754;48.252;11.654;2023-04-24T02:39:14;0.90;;;0.20;;
74269;SDS011;62754;48.252;11.654;2023-04-24T02:41:40;0.38;;;0.20;;
74269;SDS011;62754;48.252;11.654;2023-04-24T02:44:06;0.80;;;0.30;;
74269;SDS011;62754;48.252;11.654;2023-04-24T02:46:34;0.63;;;0.20;;
74269;SDS011;62754;48.252;11.654;2023-04-24T02:49:02;1.48;;;0.30;;
74269;SDS011;62754;48.252;11.654;2023-04-24T02:51:28;0.75;;;0.30;;
74269;SDS011;62754;48.252;11.654;2023-04-24T02:53:56;0.88;;;0.43;;
74269;SDS011;62754;48.252;11.654;2023-04-24T02:56:22;2.13;;;0.40;;
74269;SDS011;62754;48.252;11.654;2023-04-24T02:58:52;0.90;;;0.47;;
74269;SDS011;62754;48.252;11.654;2023-04-24T03:01:18;0.65;;;0.32;;
74269;SDS011;62754;48.252;11.654;2023-04-24T03:03:43;1.10;;;0.20;;
74269;SDS011;62754;48.252;11.654;2023-04-24T03:06:09;1.15;;;0.30;;
74269;SDS011;62754;48.252;11.654;2023-04-24T03:08:37;0.80;;;0.25;;
74269;SDS011;62754;48.252;11.654;2023-04-24T03:11:08;0.50;;;0.20;;
74269;SDS011;62754;48.252;11.654;2023-04-24T03:13:33;0.65;;;0.40;;
74269;SDS011;62754;48.252;11.654;2023-04-24T03:15:59;1.00;;;0.40;;
74269;SDS011;62754;48.252;11.654;2023-04-24T03:18:25;1.10;;;0.35;;
74269;SDS011;62754;48.252;11.654;2023-04-24T03:20:53;1.80;;;0.50;;
74269;SDS011;62754;48.252;11.654;2023-04-24T03:23:19;2.25;;;0.50;;
74269;SDS011;62754;48.252;11.654;2023-04-24T03:25:44;0.93;;;0.40;;
74269;SDS011;62754;48.252;11.654;2023-04-24T03:28:10;1.38;;;0.47;;
74269;SDS011;62754;48.252;11.654;2023-04-24T03:30:36;0.60;;;0.20;;
74269;SDS011;62754;48.252;11.654;2023-04-24T03:33:02;1.40;;;0.38;;
74269;SDS011;62754;48.252;11.654;2023-04-24T03:35:30;2.20;;;0.38;;
74269;SDS011;62754;48.252;11.654;2023-04-24T03:37:55;1.15;;;0.40;;
74269;SDS011;62754;48.252;11.654;2023-04-24T03:40:21;1.05;;;0.35;;
74269;SDS011;62754;48.252;11.654;2023-04-24T03:42:49;1.98;;;0.40;;
74269;SDS011;62754;48.252;11.654;2023-04-24T03:45:17;1.42;;;0.50;;
74269;SDS011;62754;48.252;11.654;2023-04-24T03:47:43;3.30;;;0.40;;
74269;SDS011;62754;48.252;11.654;2023-04-24T03:50:08;1.88;;;0.45;;
74269;SDS011;62754;48.252;11.654;2023-04-24T03:52:36;0.80;;;0.40;;
74269;SDS011;62754;48.252;11.654;2023-04-24T03:55:05;4.32;;;0.50;;
74269;SDS011;62754;48.252;11.654;2023-04-24T03:57:33;1.77;;;0.50;;
74269;SDS011;62754;48.252;11.654;2023-04-24T03:59:59;0.77;;;0.47;;
74269;SDS011;62754;48.252;11.654;2023-04-24T04:02:27;1.65;;;0.63;;
74269;SDS011;62754;48.252;11.654;2023-04-24T04:04:55;3.08;;;0.50;;
74269;SDS011;62754;48.252;11.654;2023-04-24T04:07:21;0.73;;;0.40;;
74269;SDS011;62754;48.252;11.654;2023-04-24T04:09:49;1.52;;;0.47;;
74269;SDS011;62754;48.252;11.654;2023-04-24T04:12:20;1.55;;;0.50;;
74269;SDS011;62754;48.252;11.654;2023-04-24T04:14:47;2.25;;;0.50;;
74269;SDS011;62754;48.252;11.654;2023-04-24T04:17:13;2.05;;;0.63;;
74269;SDS011;62754;48.252;11.654;2023-04-24T04:19:41;1.05;;;0.45;;
74269;SDS011;62754;48.252;11.654;2023-04-24T04:22:09;2.95;;;0.60;;
74269;SDS011;62754;48.252;11.654;2023-04-24T04:24:37;0.73;;;0.30;;
74269;SDS011;62754;48.252;11.654;2023-04-24T04:27:03;1.13;;;0.40;;
74269;SDS011;62754;48.252;11.654;2023-04-24T04:29:30;2.40;;;0.50;;
74269;SDS011;62754;48.252;11.654;2023-04-24T04:31:58;1.40;;;0.47;;
74269;SDS011;62754;48.252;11.654;2023-04-24T04:34:24;1.88;;;0.80;;
74269;SDS011;62754;48.252;11.654;2023-04-24T04:36:55;1.17;;;0.40;;
74269;SDS011;62754;48.252;11.654;2023-04-24T04:39:23;1.08;;;0.40;;
74269;SDS011;62754;48.252;11.654;2023-04-24T04:41:51;1.80;;;0.57;;
74269;SDS011;62754;48.252;11.654;2023-04-24T04:44:21;2.45;;;0.60;;
74269;SDS011;62754;48.252;11.654;2023-04-24T04:46:49;1.77;;;0.50;;
74269;SDS011;62754;48.252;11.654;2023-04-24T04:49:15;1.73;;;0.60;;
74269;SDS011;62754;48.252;11.654;2023-04-24T04:51:40;2.10;;;0.47;;
74269;SDS011;62754;48.252;11.654;2023-04-24T04:54:06;1.33;;;0.60;;
74269;SDS011;62754;48.252;11.654;2023-04-24T04:56:32;3.13;;;1.13;;
74269;SDS011;62754;48.252;11.654;2023-04-24T04:59:00;1.40;;;0.60;;
74269;SDS011;62754;48.252;11.654;2023-04-24T05:01:28;1.50;;;0.50;;
74269;SDS011;62754;48.252;11.654;2023-04-24T05:03:56;3.30;;;0.60;;
74269;SDS011;62754;48.252;11.654;2023-04-24T05:06:22;1.30;;;0.60;;
74269;SDS011;62754;48.252;11.654;2023-04-24T05:08:50;1.67;;;0.40;;
74269;SDS011;62754;48.252;11.654;2023-04-24T05:11:15;1.95;;;0.43;;
74269;SDS011;62754;48.252;11.654;2023-04-24T05:13:41;2.53;;;0.30;;
74269;SDS011;62754;48.252;11.654;2023-04-24T05:16:07;1.20;;;0.30;;
74269;SDS011;62754;48.252;11.654;2023-04-24T05:18:33;1.52;;;0.45;;
74269;SDS011;62754;48.252;11.654;2023-04-24T05:21:03;1.92;;;0.35;;
74269;SDS011;62754;48.252;11.654;2023-04-24T05:23:29;1.15;;;0.30;;
74269;SDS011;62754;48.252;11.654;2023-04-24T05:25:55;0.47;;;0.22;;
74269;SDS011;62754;48.252;11.654;2023-04-24T05:28:25;1.45;;;0.50;;
74269;SDS011;62754;48.252;11.654;2023-04-24T05:30:56;2.00;;;0.90;;
74269;SDS011;62754;48.252;11.654;2023-04-24T05:33:22;1.15;;;0.60;;
74269;SDS011;62754;48.252;11.654;2023-04-24T05:35:48;0.52;;;0.20;;
74269;SDS011;62754;48.252;11.654;2023-04-24T05:38:14;1.42;;;0.30;;
74269;SDS011;62754;48.252;11.654;2023-04-24T05:40:42;1.85;;;0.50;;
74269;SDS011;62754;48.252;11.654;2023-04-24T05:43:07;2.95;;;0.77;;
74269;SDS011;62754;48.252;11.654;2023-04-24T05:45:33;1.10;;;0.40;;
74269;SDS011;62754;48.252;11.654;2023-04-24T05:47:59;0.68;;;0.30;;
74269;SDS011;62754;48.252;11.654;2023-04-24T05:50:27;1.10;;;0.40;;
74269;SDS011;62754;48.252;11.654;2023-04-24T05:52:53;0.88;;;0.30;;
74269;SDS011;62754;48.252;11.654;2023-04-24T05:55:19;3.30;;;1.27;;
74269;SDS011;62754;48.252;11.654;2023-04-24T05:57:47;1.77;;;0.50;;
74269;SDS011;62754;48.252;11.654;2023-04-24T06:00:18;1.95;;;0.30;;
74269;SDS011;62754;48.252;11.654;2023-04-24T06:02:44;1.55;;;0.30;;
74269;SDS011;62754;48.252;11.654;2023-04-24T06:05:15;1.15;;;0.40;;
74269;SDS011;62754;48.252;11.654;2023-04-24T06:07:44;0.98;;;0.20;;
74269;SDS011;62754;48.252;11.654;2023-04-24T06:10:12;0.55;;;0.20;;
74269;SDS011;62754;48.252;11.654;2023-04-24T06:12:38;0.77;;;0.30;;
74269;SDS011;62754;48.252;11.654;2023-04-24T06:15:06;0.68;;;0.30;;
74269;SDS011;62754;48.252;11.654;2023-04-24T06:17:32;1.02;;;0.30;;
74269;SDS011;62754;48.252;11.654;2023-04-24T06:20:00;2.05;;;0.40;;
74269;SDS011;62754;48.252;11.654;2023-04-24T06:22:26;2.10;;;0.30;;
74269;SDS011;62754;48.252;11.654;2023-04-24T06:24:55;2.63;;;0.47;;
74269;SDS011;62754;48.252;11.654;2023-04-24T06:27:21;1.73;;;0.45;;
74269;SDS011;62754;48.252;11.654;2023-04-24T06:29:51;1.48;;;0.30;;
74269;SDS011;62754;48.252;11.654;2023-04-24T06:32:19;1.83;;;0.30;;
74269;SDS011;62754;48.252;11.654;2023-04-24T06:34:47;1.67;;;0.20;;
74269;SDS011;62754;48.252;11.654;2023-04-24T06:37:13;1.10;;;0.30;;
74269;SDS011;62754;48.252;11.654;2023-04-24T06:39:39;0.40;;;0.20;;
74269;SDS011;62754;48.252;11.654;2023-04-24T06:42:08;1.30;;;0.30;;
74269;SDS011;62754;48.252;11.654;2023-04-24T06:44:36;1.02;;;0.20;;
74269;SDS011;62754;48.252;11.654;2023-04-24T06:47:04;0.20;;;0.20;;
74269;SDS011;62754;48.252;11.654;2023-04-24T06:49:32;1.58;;;0.30;;
74269;SDS011;62754;48.252;11.654;2023-04-24T06:52:00;0.28;;;0.15;;
74269;SDS011;62754;48.252;11.654;2023-04-24T06:54:28;0.77;;;0.20;;
74269;SDS011;62754;48.252;11.654;2023-04-24T06:56:56;0.88;;;0.40;;
74269;SDS011;62754;48.252;11.654;2023-04-24T06:59:23;0.47;;;0.20;;
74269;SDS011;62754;48.252;11.654;2023-04-24T07:01:49;0.90;;;0.20;;
74269;SDS011;62754;48.252;11.654;2023-04-24T07:04:15;2.78;;;0.30;;
74269;SDS011;62754;48.252;11.654;2023-04-24T07:06:40;1.27;;;0.90;;
74269;SDS011;62754;48.252;11.654;2023-04-24T07:09:06;0.43;;;0.20;;
74269;SDS011;62754;48.252;11.654;2023-04-24T07:11:34;0.98;;;0.20;;
74269;SDS011;62754;48.252;11.654;2023-04-24T07:14:03;0.55;;;0.30;;
74269;SDS011;62754;48.252;11.654;2023-04-24T07:16:28;1.08;;;0.30;;
74269;SDS011;62754;48.252;11.654;2023-04-24T07:18:57;2.42;;;0.22;;
74269;SDS011;62754;48.252;11.654;2023-04-24T07:21:23;1.40;;;0.35;;
74269;SDS011;62754;48.252;11.654;2023-04-24T07:23:52;0.88;;;0.20;;
74269;SDS011;62754;48.252;11.654;2023-04-24T07:26:17;2.42;;;0.30;;
74269;SDS011;62754;48.252;11.654;2023-04-24T07:28:43;1.48;;;0.28;;
74269;SDS011;62754;48.252;11.654;2023-04-24T07:31:10;0.88;;;0.20;;
74269;SDS011;62754;48.252;11.654;2023-04-24T07:33:41;0.88;;;0.22;;
74269;SDS011;62754;48.252;11.654;2023-04-24T07:36:07;1.67;;;0.28;;
74269;SDS011;62754;48.252;11.654;2023-04-24T07:38:32;2.67;;;0.32;;
74269;SDS011;62754;48.252;11.654;2023-04-24T07:40:58;0.57;;;0.30;;
74269;SDS011;62754;48.252;11.654;2023-04-24T07:43:26;0.55;;;0.28;;
74269;SDS011;62754;48.252;11.654;2023-04-24T07:45:54;1.67;;;0.25;;
74269;SDS011;62754;48.252;11.654;2023-04-24T07:48:22;3.15;;;0.35;;
74269;SDS011;62754;48.252;11.654;2023-04-24T07:50:48;0.30;;;0.20;;
74269;SDS011;62754;48.252;11.654;2023-04-24T07:53:14;0.25;;;0.20;;
74269;SDS011;62754;48.252;11.654;2023-04-24T07:55:44;0.63;;;0.20;;
74269;SDS011;62754;48.252;11.654;2023-04-24T07:58:14;2.50;;;0.30;;
74269;SDS011;62754;48.252;11.654;2023-04-24T08:00:40;1.30;;;0.40;;
74269;SDS011;62754;48.252;11.654;2023-04-24T08:03:08;1.42;;;0.38;;
74269;SDS011;62754;48.252;11.654;2023-04-24T08:05:36;1.02;;;0.32;;
74269;SDS011;62754;48.252;11.654;2023-04-24T08:08:04;1.48;;;0.45;;
74269;SDS011;62754;48.252;11.654;2023-04-24T08:10:35;2.20;;;0.30;;
74269;SDS011;62754;48.252;11.654;2023-04-24T08:13:03;0.50;;;0.20;;
74269;SDS011;62754;48.252;11.654;2023-04-24T08:15:31;0.60;;;0.20;;
74269;SDS011;62754;48.252;11.654;2023-04-24T08:17:59;0.73;;;0.35;;
74269;SDS011;62754;48.252;11.654;2023-04-24T08:20:28;1.55;;;0.30;;
74269;SDS011;62754;48.252;11.654;2023-04-24T08:22:54;1.25;;;0.40;;
74269;SDS011;62754;48.252;11.654;2023-04-24T08:25:20;0.77;;;0.13;;
74269;SDS011;62754;48.252;11.654;2023-04-24T08:27:46;0.95;;;0.25;;
74269;SDS011;62754;48.252;11.654;2023-04-24T08:30:14;0.95;;;0.30;;
74269;SDS011;62754;48.252;11.654;2023-04-24T08:32:39;0.70;;;0.20;;
74269;SDS011;62754;48.252;11.654;2023-04-24T08:35:07;0.47;;;0.22;;
74269;SDS011;62754;48.252;11.654;2023-04-24T08:37:36;0.60;;;0.30;;
74269;SDS011;62754;48.252;11.654;2023-04-24T08:40:05;0.88;;;0.30;;
74269;SDS011;62754;48.252;11.654;2023-04-24T08:42:38;0.85;;;0.25;;
74269;SDS011;62754;48.252;11.654;2023-04-24T08:45:04;1.13;;;0.20;;
74269;SDS011;62754;48.252;11.654;2023-04-24T08:47:30;0.70;;;0.30;;
74269;SDS011;62754;48.252;11.654;2023-04-24T08:49:58;0.80;;;0.30;;
74269;SDS011;62754;48.252;11.654;2023-04-24T08:52:27;2.35;;;0.40;;
74269;SDS011;62754;48.252;11.654;2023-04-24T08:54:53;1.00;;;0.30;;
74269;SDS011;62754;48.252;11.654;2023-04-24T08:57:22;1.65;;;0.22;;
74269;SDS011;62754;48.252;11.654;2023-04-24T08:59:50;0.63;;;0.40;;
74269;SDS011;62754;48.252;11.654;2023-04-24T09:02:19;0.82;;;0.38;;
74269;SDS011;62754;48.252;11.654;2023-04-24T09:04:50;1.15;;;0.60;;
74269;SDS011;62754;48.252;11.654;2023-04-24T09:07:19;1.77;;;0.60;;
74269;SDS011;62754;48.252;11.654;2023-04-24T09:09:47;2.85;;;0.93;;
74269;SDS011;62754;48.252;11.654;2023-04-24T09:12:15;1.10;;;0.45;;
74269;SDS011;62754;48.252;11.654;2023-04-24T09:14:42;1.73;;;0.40;;
74269;SDS011;62754;48.252;11.654;2023-04-24T09:17:07;1.90;;;0.55;;
74269;SDS011;62754;48.252;11.654;2023-04-24T09:19:33;1.77;;;0.60;;
74269;SDS011;62754;48.252;11.654;2023-04-24T09:22:05;2.22;;;0.77;;
74269;SDS011;62754;48.252;11.654;2023-04-24T09:24:32;1.58;;;0.60;;
74269;SDS011;62754;48.252;11.654;2023-04-24T09:27:00;1.63;;;0.70;;
74269;SDS011;62754;48.252;11.654;2023-04-24T09:29:26;3.05;;;0.55;;
74269;SDS011;62754;48.252;11.654;2023-04-24T09:34:24;1.90;;;0.85;;
74269;SDS011;62754;48.252;11.654;2023-04-24T09:36:53;2.47;;;0.80;;
74269;SDS011;62754;48.252;11.654;2023-04-24T09:39:19;2.60;;;0.70;;
74269;SDS011;62754;48.252;11.654;2023-04-24T09:44:19;0.95;;;0.50;;
74269;SDS011;62754;48.252;11.654;2023-04-24T09:46:49;2.15;;;0.75;;
74269;SDS011;62754;48.252;11.654;2023-04-24T09:49:28;3.50;;;0.70;;
74269;SDS011;62754;48.252;11.654;2023-04-24T09:52:02;2.13;;;0.80;;
74269;SDS011;62754;48.252;11.654;2023-04-24T09:54:31;3.17;;;1.10;;
74269;SDS011;62754;48.252;11.654;2023-04-24T09:56:57;1.20;;;0.60;;
74269;SDS011;62754;48.252;11.654;2023-04-24T09:59:22;1.95;;;0.90;;
74269;SDS011;62754;48.252;11.654;2023-04-24T10:01:50;3.10;;;0.60;;
74269;SDS011;62754;48.252;11.654;2023-04-24T10:04:20;2.42;;;0.80;;
74269;SDS011;62754;48.252;11.654;2023-04-24T10:06:48;3.38;;;1.13;;
74269;SDS011;62754;48.252;11.654;2023-04-24T10:09:18;1.30;;;0.70;;
74269;SDS011;62754;48.252;11.654;2023-04-24T10:11:47;2.15;;;1.02;;
74269;SDS011;62754;48.252;11.654;2023-04-24T10:14:14;2.08;;;0.70;;
74269;SDS011;62754;48.252;11.654;2023-04-24T10:16:42;2.85;;;0.88;;
74269;SDS011;62754;48.252;11.654;2023-04-24T10:19:10;1.98;;;0.88;;
74269;SDS011;62754;48.252;11.654;2023-04-24T10:21:36;2.63;;;0.80;;
74269;SDS011;62754;48.252;11.654;2023-04-24T10:24:02;2.90;;;1.00;;
74269;SDS011;62754;48.252;11.654;2023-04-24T10:26:31;3.50;;;0.82;;
74269;SDS011;62754;48.252;11.654;2023-04-24T10:28:59;1.73;;;0.90;;
74269;SDS011;62754;48.252;11.654;2023-04-24T10:31:26;1.92;;;0.70;;
74269;SDS011;62754;48.252;11.654;2023-04-24T10:33:56;1.85;;;1.05;;
74269;SDS011;62754;48.252;11.654;2023-04-24T10:36:27;3.97;;;1.05;;
74269;SDS011;62754;48.252;11.654;2023-04-24T10:38:55;1.80;;;0.63;;
74269;SDS011;62754;48.252;11.654;2023-04-24T10:41:25;1.98;;;1.10;;
74269;SDS011;62754;48.252;11.654;2023-04-24T10:44:05;2.08;;;1.00;;
74269;SDS011;62754;48.252;11.654;2023-04-24T10:46:31;2.63;;;1.17;;
74269;SDS011;62754;48.252;11.654;2023-04-24T10:48:57;4.68;;;0.98;;
74269;SDS011;62754;48.252;11.654;2023-04-24T10:51:42;1.77;;;0.90;;
74269;SDS011;62754;48.252;11.654;2023-04-24T10:54:24;2.00;;;0.90;;
74269;SDS011;62754;48.252;11.654;2023-04-24T10:59:44;1.50;;;0.80;;
74269;SDS011;62754;48.252;11.654;2023-04-24T11:02:13;1.83;;;0.70;;
74269;SDS011;62754;48.252;11.654;2023-04-24T11:04:39;1.45;;;0.40;;
74269;SDS011;62754;48.252;11.654;2023-04-24T11:07:05;1.80;;;0.50;;
74269;SDS011;62754;48.252;11.654;2023-04-24T11:09:31;3.17;;;0.68;;
74269;SDS011;62754;48.252;11.654;2023-04-24T11:12:04;0.95;;;0.45;;
74269;SDS011;62754;48.252;11.654;2023-04-24T11:14:30;1.92;;;0.52;;
74269;SDS011;62754;48.252;11.654;2023-04-24T11:16:55;1.30;;;0.50;;
74269;SDS011;62754;48.252;11.654;2023-04-24T11:19:26;1.48;;;0.50;;
74269;SDS011;62754;48.252;11.654;2023-04-24T11:21:56;1.00;;;0.40;;
74269;SDS011;62754;48.252;11.654;2023-04-24T11:24:23;0.77;;;0.40;;
74269;SDS011;62754;48.252;11.654;2023-04-24T11:26:55;1.38;;;0.55;;
74269;SDS011;62754;48.252;11.654;2023-04-24T11:29:48;1.65;;;0.50;;
74269;SDS011;62754;48.252;11.654;2023-04-24T11:37:26;3.05;;;0.73;;
74269;SDS011;62754;48.252;11.654;2023-04-24T11:39:54;1.80;;;0.50;;
74269;SDS011;62754;48.252;11.654;2023-04-24T11:42:22;1.20;;;0.50;;
74269;SDS011;62754;48.252;11.654;2023-04-24T11:44:53;2.28;;;0.57;;
74269;SDS011;62754;48.252;11.654;2023-04-24T11:47:22;1.45;;;0.50;;
74269;SDS011;62754;48.252;11.654;2023-04-24T11:49:56;1.98;;;0.47;;
74269;SDS011;62754;48.252;11.654;2023-04-24T11:52:23;2.28;;;0.55;;
74269;SDS011;62754;48.252;11.654;2023-04-24T11:54:51;1.30;;;0.60;;
74269;SDS011;62754;48.252;11.654;2023-04-24T11:57:23;1.95;;;0.70;;
74269;SDS011;62754;48.252;11.654;2023-04-24T11:59:52;1.75;;;0.60;;
74269;SDS011;62754;48.252;11.654;2023-04-24T12:02:23;1.20;;;0.50;;
74269;SDS011;62754;48.252;11.654;2023-04-24T12:04:52;1.23;;;0.60;;
74269;SDS011;62754;48.252;11.654;2023-04-24T12:07:19;1.60;;;0.60;;
74269;SDS011;62754;48.252;11.654;2023-04-24T12:09:48;1.75;;;0.80;;
74269;SDS011;62754;48.252;11.654;2023-04-24T12:12:19;2.22;;;1.05;;
74269;SDS011;62754;48.252;11.654;2023-04-24T12:14:52;2.92;;;0.80;;
74269;SDS011;62754;48.252;11.654;2023-04-24T12:17:28;2.50;;;0.90;;
74269;SDS011;62754;48.252;11.654;2023-04-24T12:19:59;2.17;;;0.70;;
74269;SDS011;62754;48.252;11.654;2023-04-24T12:22:26;1.88;;;0.77;;
74269;SDS011;62754;48.252;11.654;2023-04-24T12:24:55;2.45;;;0.75;;
74269;SDS011;62754;48.252;11.654;2023-04-24T12:27:24;1.83;;;0.77;;
74269;SDS011;62754;48.252;11.654;2023-04-24T12:29:57;4.50;;;1.08;;
74269;SDS011;62754;48.252;11.654;2023-04-24T12:32:23;2.58;;;0.85;;
74269;SDS011;62754;48.252;11.654;2023-04-24T12:34:50;1.27;;;0.60;;
74269;SDS011;62754;48.252;11.654;2023-04-24T12:37:17;1.52;;;0.52;;
74269;SDS011;62754;48.252;11.654;2023-04-24T12:42:27;2.88;;;0.85;;
74269;SDS011;62754;48.252;11.654;2023-04-24T12:44:56;1.33;;;0.60;;
74269;SDS011;62754;48.252;11.654;2023-04-24T12:47:29;1.50;;;0.70;;
74269;SDS011;62754;48.252;11.654;2023-04-24T12:49:57;2.42;;;0.77;;
74269;SDS011;62754;48.252;11.654;2023-04-24T12:52:26;3.42;;;0.90;;
74269;SDS011;62754;48.252;11.654;2023-04-24T12:54:56;1.77;;;0.65;;
74269;SDS011;62754;48.252;11.654;2023-04-24T12:57:23;1.67;;;0.80;;
74269;SDS011;62754;48.252;11.654;2023-04-24T12:59:50;1.45;;;0.60;;
74269;SDS011;62754;48.252;11.654;2023-04-24T13:02:16;1.33;;;0.70;;
74269;SDS011;62754;48.252;11.654;2023-04-24T13:04:43;2.35;;;0.65;;
74269;SDS011;62754;48.252;11.654;2023-04-24T13:07:10;1.63;;;0.60;;
74269;SDS011;62754;48.252;11.654;2023-04-24T13:09:35;1.38;;;0.60;;
74269;SDS011;62754;48.252;11.654;2023-04-24T13:12:03;1.77;;;0.75;;
74269;SDS011;62754;48.252;11.654;2023-04-24T13:14:31;1.85;;;0.88;;
74269;SDS011;62754;48.252;11.654;2023-04-24T13:16:57;3.33;;;1.05;;
74269;SDS011;62754;48.252;11.654;2023-04-24T13:19:26;3.42;;;1.15;;
74269;SDS011;62754;48.252;11.654;2023-04-24T13:21:55;3.08;;;1.45;;
74269;SDS011;62754;48.252;11.654;2023-04-24T13:24:22;2.70;;;1.00;;
74269;SDS011;62754;48.252;11.654;2023-04-24T13:26:48;2.58;;;0.90;;
74269;SDS011;62754;48.252;11.654;2023-04-24T13:29:14;2.72;;;1.05;;
74269;SDS011;62754;48.252;11.654;2023-04-24T13:31:45;2.60;;;0.80;;
74269;SDS011;62754;48.252;11.654;2023-04-24T13:34:12;3.35;;;1.10;;
74269;SDS011;62754;48.252;11.654;2023-04-24T13:36:38;3.53;;;1.02;;
74269;SDS011;62754;48.252;11.654;2023-04-24T13:39:04;2.83;;;0.95;;
74269;SDS011;62754;48.252;11.654;2023-04-24T13:41:35;3.65;;;0.90;;
74269;SDS011;62754;48.252;11.654;2023-04-24T13:44:01;2.45;;;0.90;;
74269;SDS011;62754;48.252;11.654;2023-04-24T13:46:27;4.40;;;0.80;;
74269;SDS011;62754;48.252;11.654;2023-04-24T13:48:52;2.20;;;0.80;;
74269;SDS011;62754;48.252;11.654;2023-04-24T13:51:20;1.80;;;0.70;;
74269;SDS011;62754;48.252;11.654;2023-04-24T13:53:49;1.27;;;0.60;;
74269;SDS011;62754;48.252;11.654;2023-04-24T13:56:14;2.28;;;0.80;;
74269;SDS011;62754;48.252;11.654;2023-04-24T13:58:40;3.03;;;0.70;;
74269;SDS011;62754;48.252;11.654;2023-04-24T14:01:08;2.47;;;0.80;;
74269;SDS011;62754;48.252;11.654;2023-04-24T14:03:37;2.60;;;0.68;;
74269;SDS011;62754;48.252;11.654;2023-04-24T14:08:28;2.25;;;0.88;;
74269;SDS011;62754;48.252;11.654;2023-04-24T14:10:54;2.30;;;0.80;;
74269;SDS011;62754;48.252;11.654;2023-04-24T14:13:22;3.00;;;1.30;;
74269;SDS011;62754;48.252;11.654;2023-04-24T14:15:48;5.35;;;1.15;;
74269;SDS011;62754;48.252;11.654;2023-04-24T14:18:14;2.60;;;0.60;;
74269;SDS011;62754;48.252;11.654;2023-04-24T14:20:40;2.55;;;0.80;;
74269;SDS011;62754;48.252;11.654;2023-04-24T14:23:05;2.60;;;1.00;;
74269;SDS011;62754;48.252;11.654;2023-04-24T14:25:31;3.83;;;0.82;;
74269;SDS011;62754;48.252;11.654;2023-04-24T14:27:57;2.75;;;0.90;;
74269;SDS011;62754;48.252;11.654;2023-04-24T14:30:27;3.20;;;1.00;;
74269;SDS011;62754;48.252;11.654;2023-04-24T14:32:55;3.17;;;1.00;;
74269;SDS011;62754;48.252;11.654;2023-04-24T14:35:23;1.35;;;0.80;;
74269;SDS011;62754;48.252;11.654;2023-04-24T14:37:49;1.70;;;0.73;;
74269;SDS011;62754;48.252;11.654;2023-04-24T14:40:19;3.20;;;1.10;;
74269;SDS011;62754;48.252;11.654;2023-04-24T14:42:47;1.90;;;0.85;;
74269;SDS011;62754;48.252;11.654;2023-04-24T14:45:13;2.97;;;0.90;;
74269;SDS011;62754;48.252;11.654;2023-04-24T14:47:41;2.58;;;1.17;;
74269;SDS011;62754;48.252;11.654;2023-04-24T14:50:07;2.08;;;0.93;;
74269;SDS011;62754;48.252;11.654;2023-04-24T14:52:33;2.78;;;1.10;;
74269;SDS011;62754;48.252;11.654;2023-04-24T14:55:01;1.98;;;0.65;;